Time;durP1;ratioP1;P1;durP2;ratioP2;P2;SDS_P1;SDS_P2;PMS_P1;PMS_P2;Temp;Humidity;BMP_temperature;BMP_pressure;BME280_temperature;BME280_humidity;BME280_pressure;Samples;Min_cycle;Max_cycle;Signal;HPM_P1;HPM_P2
2023/01/04 00:02:25;;;;;;;19.20;9.20;;;;;;;3.64;70.18;101255.27;100072;1282;110365;-68
2023/01/04 00:04:52;;;;;;;16.50;8.60;;;;;;;3.61;70.10;101253.52;100031;1294;108103;-70
2023/01/04 00:07:19;;;;;;;20.70;8.70;;;;;;;3.58;70.27;101250.72;99988;1288;138210;-70
2023/01/04 00:09:46;;;;;;;16.50;9.30;;;;;;;3.56;70.25;101252.76;99304;1288;1003688;-70
2023/01/04 00:12:13;;;;;;;19.00;9.30;;;;;;;3.54;70.17;101251.36;99969;1296;138653;-70
2023/01/04 00:14:41;;;;;;;19.40;9.90;;;;;;;3.51;70.28;101256.32;99359;1289;1003019;-70
2023/01/04 00:17:08;;;;;;;20.30;9.60;;;;;;;3.49;70.48;101249.75;99968;1287;138452;-70
2023/01/04 00:19:35;;;;;;;17.30;9.60;;;;;;;3.47;70.43;101246.81;100160;1297;97854;-70
2023/01/04 00:22:02;;;;;;;20.00;10.20;;;;;;;3.44;70.49;101242.64;100127;1288;108020;-69
2023/01/04 00:24:29;;;;;;;20.10;11.00;;;;;;;3.39;70.54;101240.33;100020;1296;139119;-69
2023/01/04 00:26:56;;;;;;;23.60;11.10;;;;;;;3.37;70.68;101238.58;99388;1287;1003168;-69
2023/01/04 00:29:24;;;;;;;20.60;10.50;;;;;;;3.33;70.76;101239.73;100003;1289;138817;-68
2023/01/04 00:31:51;;;;;;;15.80;10.30;;;;;;;3.26;70.64;101242.59;100088;1296;97864;-68
2023/01/04 00:34:19;;;;;;;20.90;11.20;;;;;;;3.21;70.76;101250.91;100114;1294;107315;-69
2023/01/04 00:36:46;;;;;;;17.60;11.40;;;;;;;3.17;70.87;101255.50;100046;1287;140468;-69
2023/01/04 00:39:15;;;;;;;21.70;11.40;;;;;;;3.12;70.93;101255.95;100121;1289;112769;-69
2023/01/04 00:41:44;;;;;;;20.50;11.70;;;;;;;3.08;71.02;101260.19;100231;1294;138514;-68
2023/01/04 00:44:26;;;;;;;20.30;11.80;;;;;;;3.00;71.05;101261.62;100147;1291;97725;-68
2023/01/04 00:46:54;;;;;;;21.20;11.80;;;;;;;2.96;71.29;101264.30;99377;1294;1003859;-70
2023/01/04 00:49:21;;;;;;;22.90;12.00;;;;;;;2.91;71.35;101264.08;100004;1285;138268;-69
2023/01/04 00:51:48;;;;;;;24.00;12.20;;;;;;;2.87;71.53;101261.41;100168;1289;110224;-69
2023/01/04 00:54:16;;;;;;;23.40;12.20;;;;;;;2.85;71.50;101268.59;99946;1289;139203;-68
2023/01/04 00:56:43;;;;;;;21.80;11.90;;;;;;;2.84;71.57;101273.73;100166;1292;98053;-69
2023/01/04 00:59:12;;;;;;;20.40;11.00;;;;;;;2.83;71.63;101279.05;100054;1289;138498;-69
2023/01/04 01:01:41;;;;;;;21.30;11.60;;;;;;;2.82;71.63;101278.86;100119;1288;97823;-68
2023/01/04 01:04:10;;;;;;;20.80;11.70;;;;;;;2.82;71.65;101284.18;100109;1287;111469;-68
2023/01/04 01:06:37;;;;;;;22.70;12.60;;;;;;;2.80;71.81;101286.73;99255;1291;1003036;-69
2023/01/04 01:09:05;;;;;;;19.50;11.80;;;;;;;2.77;71.75;101287.20;100123;1291;98109;-69
2023/01/04 01:11:35;;;;;;;21.50;11.90;;;;;;;2.78;71.66;101285.67;99962;1295;138291;-68
2023/01/04 01:14:02;;;;;;;23.60;12.70;;;;;;;2.76;71.62;101282.02;99393;1292;1002896;-68
2023/01/04 01:16:29;;;;;;;23.40;13.10;;;;;;;2.71;71.67;101285.58;100167;1288;111629;-69
2023/01/04 01:19:16;;;;;;;24.20;12.80;;;;;;;2.66;71.81;101287.52;100011;1288;137679;-69
2023/01/04 01:21:44;;;;;;;25.60;12.70;;;;;;;2.62;71.96;101284.88;100168;1289;97720;-67
2023/01/04 01:24:18;;;;;;;26.80;13.50;;;;;;;2.60;72.07;101289.31;99963;1288;137660;-69
2023/01/04 01:26:45;;;;;;;25.20;13.70;;;;;;;2.54;71.88;101289.91;100098;1289;97732;-70
2023/01/04 01:29:12;;;;;;;24.80;12.80;;;;;;;2.50;72.15;101294.29;99985;1288;139392;-70
2023/01/04 01:31:40;;;;;;;23.20;13.50;;;;;;;2.46;72.22;101297.14;100158;1295;107056;-68
2023/01/04 01:34:07;;;;;;;22.90;13.00;;;;;;;2.41;72.19;101294.67;100170;1289;97870;-69
2023/01/04 01:36:34;;;;;;;20.80;12.50;;;;;;;2.38;72.35;101295.83;100075;1291;138300;-69
2023/01/04 01:39:01;;;;;;;24.70;13.80;;;;;;;2.38;72.59;101293.41;100122;1288;97879;-68
2023/01/04 01:41:31;;;;;;;26.50;13.90;;;;;;;2.35;72.68;101288.90;100011;1298;138508;-69
2023/01/04 01:44:00;;;;;;;25.20;13.70;;;;;;;2.34;72.75;101287.14;99306;1293;1004230;-69
2023/01/04 01:46:34;;;;;;;21.90;13.20;;;;;;;2.33;72.83;101273.74;100142;1294;97840;-70
2023/01/04 01:49:07;;;;;;;21.80;12.90;;;;;;;2.35;72.84;101267.79;101185;1295;138306;-70
2023/01/04 01:51:35;;;;;;;23.80;14.20;;;;;;;2.32;72.87;101266.17;99406;1289;1003052;-69
2023/01/04 01:54:08;;;;;;;28.30;14.60;;;;;;;2.30;72.95;101266.14;99974;1290;140434;-69
2023/01/04 01:56:39;;;;;;;27.30;14.70;;;;;;;2.27;72.77;101262.64;98561;1297;1003839;-70
2023/01/04 01:59:08;;;;;;;25.60;14.20;;;;;;;2.20;73.04;101258.25;99198;1290;1002660;-69
2023/01/04 02:01:36;;;;;;;24.90;14.30;;;;;;;2.13;72.88;101258.45;100039;1287;107312;-68
2023/01/04 02:04:04;;;;;;;25.50;14.40;;;;;;;2.09;73.26;101266.27;99977;1289;97831;-69
2023/01/04 02:06:39;;;;;;;25.60;14.40;;;;;;;2.04;73.22;101277.33;99944;1297;138240;-69
2023/01/04 02:09:06;;;;;;;26.60;14.00;;;;;;;1.96;73.36;101274.25;100029;1292;106698;-70
2023/01/04 02:11:35;;;;;;;24.20;14.30;;;;;;;1.91;73.47;101273.29;99246;1293;1002936;-70
2023/01/04 02:17:01;;;;;;;26.20;14.20;;;;;;;1.82;73.74;101265.75;99996;1289;97847;-70
2023/01/04 02:19:44;;;;;;;24.40;14.20;;;;;;;1.77;73.86;101268.90;99984;1291;110835;-70
2023/01/04 02:22:39;;;;;;;25.60;13.60;;;;;;;1.73;73.93;101267.63;99267;1295;1003340;-69
2023/01/04 02:25:35;;;;;;;25.60;14.30;;;;;;;1.67;74.04;101264.10;99938;1291;138470;-70
2023/01/04 02:28:08;;;;;;;24.20;14.50;;;;;;;1.62;74.23;101254.73;99280;1297;1002857;-69
2023/01/04 02:31:08;;;;;;;25.90;14.60;;;;;;;1.58;74.36;101255.48;99894;1296;1003490;-69
2023/01/04 02:33:49;;;;;;;27.60;14.60;;;;;;;1.53;74.50;101251.45;100002;1288;111664;-69
2023/01/04 02:36:25;;;;;;;24.90;15.00;;;;;;;1.46;74.44;101244.46;99929;1296;140141;-70
2023/01/04 02:38:59;;;;;;;;;;;;;;;1.41;74.68;101244.70;100156;1288;97782;-70
2023/01/04 02:41:33;;;;;;;25.60;14.30;;;;;;;1.35;74.80;101244.74;99960;1294;125245;-70
2023/01/04 02:46:58;;;;;;;26.70;14.90;;;;;;;1.25;74.97;101243.64;100136;1294;110853;-70
2023/01/04 02:52:10;;;;;;;27.40;15.60;;;;;;;1.13;75.24;101232.62;99382;1296;1003795;-70
2023/01/04 02:54:38;;;;;;;26.40;15.10;;;;;;;1.09;75.39;101236.65;98523;1287;1003620;-70
2023/01/04 02:57:30;;;;;;;29.10;15.40;;;;;;;1.06;75.48;101241.02;100134;1297;97819;-71
2023/01/04 03:00:18;;;;;;;24.10;14.40;;;;;;;1.03;75.52;101244.20;99924;1297;139377;-70
2023/01/04 03:06:17;;;;;;;27.80;15.80;;;;;;;0.97;75.79;101240.65;99955;1295;139174;-71
2023/01/04 03:08:54;;;;;;;25.00;15.30;;;;;;;0.94;76.08;101237.50;100077;1297;106865;-69
2023/01/04 03:14:14;;;;;;;26.60;15.60;;;;;;;0.89;76.13;101230.02;99313;1287;1003245;-70
2023/01/04 03:17:01;;;;;;;27.90;15.00;;;;;;;0.87;76.27;101226.54;100010;1293;107783;-70
2023/01/04 03:36:45;;;;;;;29.10;16.80;;;;;;;0.84;76.83;101192.05;99681;1306;138322;-69
2023/01/04 03:50:39;;;;;;;27.50;16.40;;;;;;;0.79;77.15;101198.11;99783;1300;109239;-70
2023/01/04 03:53:07;;;;;;;27.00;16.30;;;;;;;0.80;77.12;101190.77;99846;1292;97720;-69
2023/01/04 03:55:37;;;;;;;32.30;17.30;;;;;;;0.79;77.17;101179.80;99879;1297;110235;-69
2023/01/04 03:58:04;;;;;;;25.10;15.90;;;;;;;0.76;77.13;101175.63;99060;1298;1002687;-69
2023/01/04 04:00:31;;;;;;;29.60;17.70;;;;;;;0.74;77.17;101177.82;99259;1294;1003438;-68
2023/01/04 04:03:06;;;;;;;29.90;16.90;;;;;;;0.73;77.12;101183.43;100119;1288;107852;-70
2023/01/04 04:08:28;;;;;;;30.00;15.60;;;;;;;0.70;77.31;101180.95;99444;1294;1015255;-69
2023/01/04 04:10:57;;;;;;;27.60;16.40;;;;;;;0.68;77.32;101185.17;100097;1288;107712;-70
2023/01/04 04:13:24;;;;;;;31.00;17.30;;;;;;;0.67;77.45;101181.89;100023;1294;139559;-68
2023/01/04 04:15:54;;;;;;;35.30;17.90;;;;;;;0.65;77.50;101174.17;99351;1296;1003797;-69
2023/01/04 04:18:21;;;;;;;29.20;16.40;;;;;;;0.66;77.60;101174.01;99929;1289;1003136;-68
2023/01/04 04:20:56;;;;;;;29.00;16.80;;;;;;;0.67;77.68;101173.86;100116;1292;110365;-68
2023/01/04 04:23:23;;;;;;;30.30;16.80;;;;;;;0.67;77.50;101174.71;100017;1289;139011;-69
2023/01/04 04:25:50;;;;;;;27.80;17.30;;;;;;;0.66;77.58;101182.39;100176;1293;98398;-69
2023/01/04 04:28:17;;;;;;;28.00;17.30;;;;;;;0.66;77.61;101181.55;100159;1292;107969;-70
2023/01/04 04:30:44;;;;;;;32.40;16.90;;;;;;;0.65;77.65;101176.21;99346;1289;1003458;-69
2023/01/04 04:33:11;;;;;;;27.50;16.20;;;;;;;0.65;77.67;101175.70;100113;1294;110750;-69
2023/01/04 04:35:40;;;;;;;32.70;17.80;;;;;;;0.64;77.69;101169.52;100033;1294;138768;-70
2023/01/04 04:38:07;;;;;;;28.50;16.60;;;;;;;0.64;77.67;101168.15;100176;1296;97833;-69
2023/01/04 04:43:19;;;;;;;31.70;18.50;;;;;;;0.61;77.66;101169.98;100009;1289;138824;-69
2023/01/04 04:45:47;;;;;;;25.90;17.20;;;;;;;0.59;77.73;101166.87;100160;1288;112135;-69
2023/01/04 04:48:14;;;;;;;30.40;17.70;;;;;;;0.59;77.80;101165.32;99998;1288;138781;-69
2023/01/04 04:50:41;;;;;;;30.40;16.80;;;;;;;0.58;77.81;101166.16;100106;1295;99110;-69
2023/01/04 04:53:08;;;;;;;31.50;17.50;;;;;;;0.59;77.85;101165.15;100106;1290;108198;-69
2023/01/04 04:55:35;;;;;;;32.10;18.40;;;;;;;0.57;77.92;101166.31;98639;1288;1016382;-69
2023/01/04 04:58:02;;;;;;;29.60;17.10;;;;;;;0.57;77.90;101164.25;100045;1288;110785;-69
2023/01/04 05:00:29;;;;;;;32.20;18.30;;;;;;;0.57;77.95;101164.09;99948;1281;139633;-69
2023/01/04 05:02:59;;;;;;;32.40;18.10;;;;;;;0.57;78.05;101158.95;99373;1288;1003331;-69
2023/01/04 05:05:27;;;;;;;31.70;18.70;;;;;;;0.58;77.97;101159.81;100036;1288;138765;-69
2023/01/04 05:07:54;;;;;;;36.30;19.30;;;;;;;0.56;77.92;101160.13;100103;1288;97849;-70
2023/01/04 05:10:21;;;;;;;35.70;19.10;;;;;;;0.55;78.04;101162.33;98674;1281;1003707;-70
2023/01/04 05:13:01;;;;;;;35.00;19.20;;;;;;;0.56;78.15;101166.80;99927;1285;138758;-69
2023/01/04 05:15:30;;;;;;;35.20;19.70;;;;;;;0.56;78.16;101168.00;100134;1288;98316;-70
2023/01/04 05:17:57;;;;;;;36.10;19.70;;;;;;;0.57;78.16;101170.76;100036;1288;138440;-71
2023/01/04 05:20:24;;;;;;;38.70;19.90;;;;;;;0.57;78.18;101165.45;100088;1292;97696;-69
2023/01/04 05:22:51;;;;;;;32.30;18.50;;;;;;;0.57;78.10;101160.32;100121;1296;110722;-70
2023/01/04 05:25:19;;;;;;;31.10;20.10;;;;;;;0.55;78.14;101151.04;98498;1290;1002462;-71
2023/01/04 05:27:46;;;;;;;38.80;20.60;;;;;;;0.52;78.08;101146.14;100135;1288;97807;-69
2023/01/04 05:33:00;;;;;;;33.20;19.60;;;;;;;0.41;78.30;101135.98;100095;1288;97823;-70
2023/01/04 05:35:27;;;;;;;33.10;20.20;;;;;;;0.37;78.30;101140.17;99929;1292;138419;-69
2023/01/04 05:37:55;;;;;;;34.80;20.60;;;;;;;0.33;78.35;101140.05;100093;1294;107184;-70
2023/01/04 05:40:22;;;;;;;40.20;21.40;;;;;;;0.30;78.35;101133.83;100118;1288;97834;-69
2023/01/04 05:42:50;;;;;;;36.50;21.60;;;;;;;0.26;78.60;101131.52;99193;1289;1002510;-70
2023/01/04 05:45:18;;;;;;;39.90;21.90;;;;;;;0.24;78.75;101127.20;100103;1296;97808;-70
2023/01/04 05:47:45;;;;;;;34.00;19.90;;;;;;;0.24;78.59;101124.13;100018;1290;138561;-70
2023/01/04 05:50:12;;;;;;;39.10;22.40;;;;;;;0.23;78.80;101123.07;100112;1287;106874;-69
2023/01/04 05:52:39;;;;;;;42.60;22.60;;;;;;;0.23;78.85;101117.95;99399;1286;1003072;-69
2023/01/04 05:55:08;;;;;;;36.40;21.10;;;;;;;0.23;78.84;101115.55;100053;1288;138531;-69
2023/01/04 05:57:34;;;;;;;44.60;23.40;;;;;;;0.23;79.01;101113.14;100042;1289;97923;-70
2023/01/04 06:00:02;;;;;;;38.00;22.30;;;;;;;0.22;79.00;101112.11;99992;1285;138389;-70
2023/01/04 06:02:38;;;;;;;37.80;21.90;;;;;;;0.20;79.02;101109.66;100067;1288;107886;-69
2023/01/04 06:05:07;;;;;;;39.40;21.70;;;;;;;0.17;79.00;101112.98;99405;1288;1002961;-69
2023/01/04 06:07:34;;;;;;;40.90;21.70;;;;;;;0.14;79.08;101116.86;100053;1287;107556;-69
2023/01/04 06:10:01;;;;;;;39.00;21.40;;;;;;;0.12;79.20;101114.08;100046;1288;97832;-69
2023/01/04 06:12:28;;;;;;;37.80;21.20;;;;;;;0.11;79.15;101110.98;99978;1288;138359;-69
2023/01/04 06:14:55;;;;;;;38.10;21.80;;;;;;;0.11;79.23;101105.66;100128;1283;107927;-69
2023/01/04 06:17:23;;;;;;;42.00;21.90;;;;;;;0.11;79.40;101101.73;100035;1290;139947;-70
2023/01/04 06:19:50;;;;;;;39.60;22.30;;;;;;;0.11;79.27;101096.25;99944;1294;180520;-69
2023/01/04 06:22:17;;;;;;;41.10;22.30;;;;;;;0.10;79.27;101090.07;100114;1289;97809;-70
2023/01/04 06:24:44;;;;;;;41.30;21.50;;;;;;;0.08;79.25;101081.15;99967;1281;139755;-70
2023/01/04 06:27:11;;;;;;;38.70;21.60;;;;;;;0.06;79.40;101075.13;100055;1281;106711;-71
2023/01/04 06:29:38;;;;;;;34.60;21.00;;;;;;;0.05;79.30;101073.39;100006;1289;138588;-70
2023/01/04 06:32:06;;;;;;;36.10;21.70;;;;;;;0.01;79.27;101069.70;100028;1289;109335;-70
2023/01/04 06:34:33;;;;;;;42.50;21.90;;;;;;;-0.03;79.26;101062.42;100046;1287;97824;-69
2023/01/04 06:37:00;;;;;;;40.30;21.30;;;;;;;-0.07;79.28;101063.19;100027;1289;138955;-70
2023/01/04 06:39:27;;;;;;;36.40;21.50;;;;;;;-0.12;79.38;101068.36;99292;1298;1002696;-70
2023/01/04 06:41:54;;;;;;;41.80;21.30;;;;;;;-0.20;79.43;101069.53;99967;1298;140473;-69
2023/01/04 06:44:31;;;;;;;39.60;21.40;;;;;;;-0.30;79.60;101063.47;100057;1288;107935;-70
2023/01/04 06:46:58;;;;;;;49.50;22.40;;;;;;;-0.39;79.75;101063.40;100076;1288;97918;-70
2023/01/04 06:49:25;;;;;;;45.40;23.30;;;;;;;-0.47;79.93;101064.23;99925;1295;138314;-69
2023/01/04 06:51:52;;;;;;;40.60;22.10;;;;;;;-0.54;79.96;101065.61;100014;1297;106651;-70
2023/01/04 06:54:19;;;;;;;45.00;22.70;;;;;;;-0.56;80.54;101064.16;99974;1289;138676;-70
2023/01/04 06:56:46;;;;;;;39.30;22.40;;;;;;;-0.59;80.69;101064.95;100043;1288;108016;-70
2023/01/04 06:59:13;;;;;;;43.60;22.90;;;;;;;-0.61;80.79;101059.27;99986;1281;139966;-69
2023/01/04 07:01:41;;;;;;;38.40;22.70;;;;;;;-0.58;80.82;101070.08;100133;1289;111299;-70
2023/01/04 07:04:08;;;;;;;45.60;24.60;;;;;;;-0.56;80.82;101072.19;100138;1291;108052;-70
2023/01/04 07:06:36;;;;;;;40.90;23.40;;;;;;;-0.54;80.86;101073.79;100044;1288;138599;-70
2023/01/04 07:09:03;;;;;;;41.30;24.10;;;;;;;-0.50;80.80;101078.17;99421;1289;1003186;-69
2023/01/04 07:11:30;;;;;;;41.60;23.00;;;;;;;-0.46;80.85;101088.52;100013;1288;138710;-69
2023/01/04 07:13:57;;;;;;;53.60;25.80;;;;;;;-0.40;80.75;101089.88;100108;1289;110369;-70
2023/01/04 07:16:24;;;;;;;40.20;22.90;;;;;;;-0.32;80.73;101093.34;99319;1288;1002760;-69
2023/01/04 07:18:52;;;;;;;43.00;24.10;;;;;;;-0.23;80.78;101089.63;100015;1297;139808;-70
2023/01/04 07:21:19;;;;;;;49.60;23.00;;;;;;;-0.09;80.91;101089.30;100153;1295;107560;-68
2023/01/04 07:23:46;;;;;;;40.40;24.80;;;;;;;0.06;80.68;101086.40;100020;1297;138760;-69
2023/01/04 07:26:13;;;;;;;46.20;24.60;;;;;;;0.21;80.66;101083.34;100156;1288;110536;-70
2023/01/04 07:31:25;;;;;;;42.30;22.80;;;;;;;0.55;80.08;101077.09;99272;1289;1003036;-70
2023/01/04 07:33:52;;;;;;;42.20;22.90;;;;;;;0.72;79.77;101078.98;100091;1293;106236;-69
2023/01/04 07:36:19;;;;;;;44.10;23.00;;;;;;;0.87;79.45;101077.09;100004;1281;138635;-69
2023/01/04 07:38:47;;;;;;;41.60;23.00;;;;;;;1.04;79.14;101071.42;100110;1288;111693;-69
2023/01/04 07:41:14;;;;;;;37.50;22.00;;;;;;;1.20;78.97;101063.52;99945;1281;139333;-71
2023/01/04 07:43:41;;;;;;;37.70;21.60;;;;;;;1.39;78.61;101060.44;100048;1281;98324;-70
2023/01/04 07:46:08;;;;;;;40.50;22.60;;;;;;;1.57;78.31;101056.98;100101;1288;110618;-70
2023/01/04 07:48:35;;;;;;;35.30;21.80;;;;;;;1.74;77.95;101053.85;99998;1288;138551;-69
2023/01/04 07:51:02;;;;;;;36.50;21.20;;;;;;;1.89;77.42;101051.52;100104;1285;112381;-71
2023/01/04 07:53:29;;;;;;;41.30;21.00;;;;;;;2.00;77.11;101053.41;100011;1295;143008;-70
2023/01/04 07:56:00;;;;;;;36.60;21.10;;;;;;;2.15;76.93;101047.29;100123;1289;97871;-69
2023/01/04 07:58:31;;;;;;;38.80;21.80;;;;;;;2.33;76.78;101042.57;100094;1288;107656;-70
2023/01/04 08:01:05;;;;;;;36.20;21.40;;;;;;;2.54;76.48;101034.27;99279;1287;1003550;-70
2023/01/04 08:03:32;;;;;;;38.90;20.90;;;;;;;2.75;76.06;101028.88;100087;1291;110448;-69
2023/01/04 08:06:02;;;;;;;32.50;21.30;;;;;;;2.91;75.70;101022.55;99251;1296;1002881;-71
2023/01/04 08:08:29;;;;;;;38.60;22.60;;;;;;;3.08;75.23;101014.66;100147;1291;97712;-70
2023/01/04 08:10:56;;;;;;;34.30;21.40;;;;;;;3.19;74.87;101015.46;99357;1290;1015780;-69
2023/01/04 08:13:23;;;;;;;37.60;22.80;;;;;;;3.31;74.35;101015.92;99974;1288;138471;-69
2023/01/04 08:15:55;;;;;;;40.90;23.30;;;;;;;3.44;74.05;101007.63;100137;1294;110489;-69
2023/01/04 08:18:23;;;;;;;40.00;23.10;;;;;;;3.63;73.60;101002.80;99979;1296;138523;-69
2023/01/04 08:20:50;;;;;;;38.40;23.00;;;;;;;3.78;73.25;100998.28;100166;1281;97851;-70
2023/01/04 08:23:24;;;;;;;37.70;22.20;;;;;;;3.94;72.78;100989.27;99944;1283;138517;-70
2023/01/04 08:25:51;;;;;;;40.20;23.50;;;;;;;4.08;72.31;100991.92;100057;1285;97839;-70
2023/01/04 08:28:18;;;;;;;39.00;22.50;;;;;;;4.19;72.05;100993.73;100162;1288;111597;-71
2023/01/04 08:30:45;;;;;;;43.60;23.30;;;;;;;4.31;71.65;100986.22;100025;1289;140351;-70
2023/01/04 08:33:16;;;;;;;38.60;22.40;;;;;;;4.46;71.08;100976.65;100145;1289;97826;-70
2023/01/04 08:35:43;;;;;;;40.40;23.20;;;;;;;4.54;70.69;100973.77;100070;1295;138400;-71
2023/01/04 08:38:11;;;;;;;33.10;22.70;;;;;;;4.55;70.48;100975.66;100124;1288;97701;-70
2023/01/04 08:40:58;;;;;;;39.70;22.80;;;;;;;4.56;70.06;100969.80;100164;1289;111145;-70
2023/01/04 08:43:45;;;;;;;39.90;23.10;;;;;;;4.59;69.95;100970.84;100159;1289;107149;-71
2023/01/04 08:46:13;;;;;;;40.30;23.30;;;;;;;4.67;70.07;100972.27;100113;1288;97832;-70
2023/01/04 08:48:41;;;;;;;35.50;22.80;;;;;;;4.80;70.12;100974.19;99919;1293;138308;-71
2023/01/04 08:51:12;;;;;;;33.90;22.10;;;;;;;4.99;69.90;100968.03;100124;1288;98096;-70
2023/01/04 08:53:39;;;;;;;37.60;22.90;;;;;;;5.13;69.65;100964.44;100031;1291;138351;-71
2023/01/04 08:56:07;;;;;;;39.50;23.30;;;;;;;5.27;69.25;100967.92;100083;1288;107465;-70
2023/01/04 08:58:36;;;;;;;36.40;23.10;;;;;;;5.46;69.16;100965.33;100233;1293;97845;-70
2023/01/04 09:01:04;;;;;;;39.30;22.70;;;;;;;5.80;68.95;100964.28;100070;1281;138364;-71
2023/01/04 09:03:32;;;;;;;35.40;23.00;;;;;;;6.04;68.46;100964.10;100128;1291;98030;-71
2023/01/04 09:06:05;;;;;;;35.10;22.30;;;;;;;6.18;68.01;100963.04;100009;1296;138321;-70
2023/01/04 09:08:34;;;;;;;34.50;21.60;;;;;;;6.24;67.36;100953.68;101137;1291;107546;-70
2023/01/04 09:11:05;;;;;;;35.50;21.20;;;;;;;6.27;66.88;100939.68;100107;1290;97848;-69
2023/01/04 09:13:32;;;;;;;38.40;22.60;;;;;;;6.29;66.98;100936.58;101528;1296;138693;-71
2023/01/04 09:16:03;;;;;;;35.00;21.20;;;;;;;6.44;66.58;100931.32;100455;1288;98513;-71
2023/01/04 09:18:31;;;;;;;33.50;20.80;;;;;;;6.57;66.35;100922.98;99973;1290;138376;-71
2023/01/04 09:21:00;;;;;;;34.60;20.50;;;;;;;6.82;66.72;100913.69;100101;1282;107127;-70
2023/01/04 09:23:29;;;;;;;26.30;18.80;;;;;;;7.13;66.34;100909.48;99949;1289;138954;-71
2023/01/04 09:25:56;;;;;;;29.70;20.80;;;;;;;7.33;65.46;100899.46;100108;1289;108191;-70
2023/01/04 09:28:23;;;;;;;30.80;19.90;;;;;;;7.47;65.39;100891.22;100096;1286;98065;-71
2023/01/04 09:30:51;;;;;;;29.90;19.50;;;;;;;7.46;65.19;100892.27;100006;1295;137866;-70
2023/01/04 09:33:18;;;;;;;28.50;19.50;;;;;;;7.38;64.14;100883.52;100065;1298;107090;-70
2023/01/04 09:35:45;;;;;;;28.00;19.60;;;;;;;7.17;63.94;100885.77;100077;1294;138148;-70
2023/01/04 09:38:12;;;;;;;28.30;19.30;;;;;;;6.90;64.14;100879.56;100102;1289;108889;-71
2023/01/04 09:40:50;;;;;;;32.10;18.80;;;;;;;6.65;64.53;100879.55;100054;1288;97847;-71
2023/01/04 09:43:20;;;;;;;25.10;17.70;;;;;;;6.43;65.04;100877.77;99930;1289;138143;-70
2023/01/04 09:45:52;;;;;;;24.40;18.10;;;;;;;6.35;65.12;100873.34;100111;1291;106906;-70
2023/01/04 09:48:23;;;;;;;32.60;19.90;;;;;;;6.23;65.60;100863.71;100000;1287;137863;-71
2023/01/04 09:50:54;;;;;;;29.10;18.40;;;;;;;6.15;65.66;100856.52;100087;1296;107482;-70
2023/01/04 09:53:28;;;;;;;26.30;18.30;;;;;;;6.03;65.82;100852.58;100339;1294;138696;-69
2023/01/04 09:56:02;;;;;;;27.30;18.10;;;;;;;5.85;66.16;100854.69;100128;1289;111261;-69
2023/01/04 09:58:33;;;;;;;28.20;17.50;;;;;;;5.74;66.36;100851.60;100066;1294;106683;-70
2023/01/04 10:01:05;;;;;;;26.60;17.10;;;;;;;5.81;66.60;100837.80;100062;1290;138617;-70
2023/01/04 10:03:37;;;;;;;27.30;17.10;;;;;;;5.77;66.63;100833.84;100093;1291;109113;-70
2023/01/04 10:06:08;;;;;;;25.20;16.80;;;;;;;5.73;66.70;100833.83;100019;1288;138763;-70
2023/01/04 10:08:35;;;;;;;25.90;18.10;;;;;;;5.78;67.04;100825.89;100933;1288;110877;-70
2023/01/04 10:11:19;;;;;;;31.60;17.40;;;;;;;5.92;67.04;100820.00;100060;1281;106770;-70
2023/01/04 10:14:04;;;;;;;29.60;17.30;;;;;;;6.01;66.84;100815.83;100098;1288;97870;-69
2023/01/04 10:16:46;;;;;;;25.20;16.60;;;;;;;6.11;66.66;100811.47;100084;1287;108371;-69
2023/01/04 10:19:47;;;;;;;24.80;15.60;;;;;;;6.07;66.51;100798.52;99934;1290;139612;-70
2023/01/04 10:22:45;;;;;;;28.70;16.00;;;;;;;6.08;66.29;100794.20;100054;1297;113225;-69
2023/01/04 10:25:29;;;;;;;23.90;16.30;;;;;;;6.11;66.23;100787.82;99931;1290;138529;-70
2023/01/04 10:28:10;;;;;;;25.30;16.00;;;;;;;6.11;66.15;100780.22;99361;1292;1003323;-70
2023/01/04 10:30:45;;;;;;;24.90;16.20;;;;;;;6.07;66.08;100763.31;99907;1282;140087;-70
2023/01/04 10:33:15;;;;;;;27.40;17.80;;;;;;;6.02;66.12;100756.61;100049;1288;97820;-70
2023/01/04 10:35:45;;;;;;;29.40;18.30;;;;;;;5.93;65.90;100751.64;99962;1288;140311;-69
2023/01/04 10:38:16;;;;;;;34.10;19.60;;;;;;;5.77;66.11;100731.52;101584;1280;106361;-69
2023/01/04 10:40:47;;;;;;;26.90;18.10;;;;;;;5.63;66.27;100720.54;101654;1290;96230;-70
2023/01/04 10:43:21;;;;;;;28.20;18.50;;;;;;;5.49;66.41;100702.48;101485;1288;139678;-70
2023/01/04 10:45:57;;;;;;;29.30;18.80;;;;;;;5.37;66.60;100692.35;101091;1282;98221;-70
2023/01/04 10:48:33;;;;;;;28.10;17.90;;;;;;;5.24;66.89;100682.58;99992;1291;138413;-71
2023/01/04 10:51:02;;;;;;;33.40;18.70;;;;;;;5.15;67.14;100681.73;100046;1288;107264;-69
2023/01/04 10:53:44;;;;;;;25.70;16.70;;;;;;;5.03;67.41;100671.27;100028;1282;139532;-71
2023/01/04 10:56:18;;;;;;;30.80;18.30;;;;;;;4.94;67.86;100663.53;100100;1289;109456;-71
2023/01/04 10:58:58;;;;;;;30.20;18.90;;;;;;;4.91;68.23;100654.77;100086;1287;97687;-70
2023/01/04 11:01:29;;;;;;;33.70;19.30;;;;;;;4.87;68.50;100644.27;99974;1296;140467;-71
2023/01/04 11:04:02;;;;;;;28.30;17.50;;;;;;;4.81;68.85;100640.98;100025;1294;107298;-71
2023/01/04 11:06:34;;;;;;;30.40;18.50;;;;;;;4.74;69.12;100638.26;99988;1282;138471;-70
2023/01/04 11:09:04;;;;;;;33.00;19.20;;;;;;;4.66;69.16;100637.74;100076;1291;107588;-70
2023/01/04 11:11:36;;;;;;;33.40;20.50;;;;;;;4.60;69.48;100630.52;99962;1291;141124;-71
2023/01/04 11:14:04;;;;;;;38.60;20.40;;;;;;;4.50;69.83;100628.14;100032;1288;112511;-70
2023/01/04 11:16:32;;;;;;;33.00;19.80;;;;;;;4.43;70.12;100629.85;100043;1291;107200;-70
2023/01/04 11:18:59;;;;;;;33.70;20.70;;;;;;;4.39;70.44;100626.59;99998;1291;138485;-70
2023/01/04 11:21:31;;;;;;;33.80;19.70;;;;;;;4.34;70.68;100624.88;100049;1290;107799;-70
2023/01/04 11:24:01;;;;;;;38.90;20.00;;;;;;;4.30;70.91;100614.02;100282;1294;139566;-69
2023/01/04 11:26:52;;;;;;;35.20;20.30;;;;;;;4.29;71.58;100607.66;100110;1291;111309;-70
2023/01/04 11:29:30;;;;;;;38.20;21.00;;;;;;;4.26;71.57;100592.68;99336;1285;1003410;-70
2023/01/04 11:32:01;;;;;;;36.90;22.40;;;;;;;4.21;71.72;100590.80;100126;1288;97854;-69
2023/01/04 11:34:45;;;;;;;35.10;22.10;;;;;;;4.18;71.98;100582.20;100082;1296;107949;-70
2023/01/04 11:37:25;;;;;;;37.20;21.20;;;;;;;4.14;72.37;100570.16;100023;1287;139040;-71
2023/01/04 11:40:10;;;;;;;38.70;21.40;;;;;;;4.09;72.54;100556.90;99812;1292;1003430;-70
2023/01/04 11:42:37;;;;;;;33.20;20.70;;;;;;;4.08;72.62;100548.98;99963;1296;139156;-70
2023/01/04 11:45:05;;;;;;;40.10;21.30;;;;;;;4.08;72.68;100541.92;100068;1289;98326;-70
2023/01/04 11:47:32;;;;;;;39.30;21.60;;;;;;;4.07;73.02;100528.34;100074;1281;139557;-69
2023/01/04 11:49:59;;;;;;;34.30;20.10;;;;;;;4.07;73.30;100525.24;100149;1296;97878;-70
2023/01/04 11:52:35;;;;;;;34.00;21.10;;;;;;;4.06;73.34;100515.96;98711;1289;1002713;-69
2023/01/04 11:55:23;;;;;;;32.70;19.90;;;;;;;4.05;73.59;100506.49;99968;1281;138456;-70
2023/01/04 11:58:07;;;;;;;33.20;20.70;;;;;;;4.04;73.67;100491.36;100117;1285;97697;-70
2023/01/04 12:00:34;;;;;;;33.60;21.10;;;;;;;4.03;73.67;100482.94;100189;1294;138399;-70
2023/01/04 12:03:15;;;;;;;36.30;21.50;;;;;;;4.02;74.05;100466.24;99344;1291;1002899;-70
2023/01/04 12:05:42;;;;;;;39.20;22.70;;;;;;;4.01;74.51;100465.05;99976;1290;138651;-70
2023/01/04 12:08:21;;;;;;;40.80;23.80;;;;;;;3.98;74.66;100461.27;100066;1291;107394;-70
2023/01/04 12:10:49;;;;;;;37.30;22.90;;;;;;;3.92;74.69;100462.98;100070;1281;97807;-70
2023/01/04 12:13:16;;;;;;;40.60;22.20;;;;;;;3.87;74.84;100446.14;99998;1289;138911;-69
2023/01/04 12:15:55;;;;;;;35.90;22.00;;;;;;;3.86;75.04;100438.75;100086;1283;97727;-70